Time;durP1;ratioP1;P1;durP2;ratioP2;P2;SDS_P1;SDS_P2;PMS_P1;PMS_P2;Temp;Humidity;BMP_temperature;BMP_pressure;BME280_temperature;BME280_humidity;BME280_pressure;Samples;Min_cycle;Max_cycle;Signal;HPM_P1;HPM_P2
2022/07/01 00:00:22;;;;;;;9.13;2.55;;;;;;;;;;5011139;28;20033;-40
2022/07/01 00:02:47;;;;;;;8.70;2.75;;;;;;;;;;5011120;28;20042;-40
2022/07/01 00:05:13;;;;;;;10.68;2.45;;;;;;;;;;5011105;28;20077;-40
2022/07/01 00:07:44;;;;;;;8.70;2.30;;;;;;;;;;5011453;28;20029;-40
2022/07/01 00:10:10;;;;;;;4.13;1.98;;;;;;;;;;5011052;28;20065;-40
2022/07/01 00:12:35;;;;;;;5.97;1.92;;;;;;;;;;5011027;28;20050;-40
2022/07/01 00:15:01;;;;;;;7.32;2.33;;;;;;;;;;5011150;28;20042;-40
2022/07/01 00:17:26;;;;;;;4.70;2.33;;;;;;;;;;5010917;28;20018;-40
2022/07/01 00:19:52;;;;;;;8.25;2.05;;;;;;;;;;5012546;28;20038;-40
2022/07/01 00:22:17;;;;;;;4.28;2.60;;;;;;;;;;5014779;28;20414;-40
2022/07/01 00:24:45;;;;;;;4.78;2.13;;;;;;;;;;5014488;28;20044;-40
2022/07/01 00:27:10;;;;;;;5.70;2.30;;;;;;;;;;5014740;28;20018;-40
2022/07/01 00:29:36;;;;;;;5.00;1.92;;;;;;;;;;5014383;28;20391;-40
2022/07/01 00:32:01;;;;;;;9.15;4.10;;;;;;;;;;5014348;28;20068;-40
2022/07/01 00:34:26;;;;;;;10.40;2.45;;;;;;;;;;5014645;28;20038;-40
2022/07/01 00:36:52;;;;;;;5.10;2.75;;;;;;;;;;5014277;28;20403;-40
2022/07/01 00:39:17;;;;;;;7.43;3.03;;;;;;;;;;5014391;28;20022;-40
2022/07/01 00:41:42;;;;;;;5.68;2.22;;;;;;;;;;5014235;28;20026;-40
2022/07/01 00:44:15;;;;;;;8.68;3.33;;;;;;;;;;5014252;28;20048;-40
2022/07/01 00:46:41;;;;;;;5.13;2.40;;;;;;;;;;5014121;28;20419;-40
2022/07/01 00:49:06;;;;;;;7.22;2.60;;;;;;;;;;5014006;28;20033;-40
2022/07/01 00:51:32;;;;;;;5.97;3.15;;;;;;;;;;5014015;28;20026;-40
2022/07/01 00:53:58;;;;;;;4.40;2.00;;;;;;;;;;5014263;28;20032;-41
2022/07/01 00:56:23;;;;;;;3.92;2.53;;;;;;;;;;5013807;28;20573;-40
2022/07/01 00:58:49;;;;;;;5.43;2.75;;;;;;;;;;5014231;28;20057;-40
2022/07/01 01:01:14;;;;;;;5.80;2.50;;;;;;;;;;5013749;28;20046;-40
2022/07/01 01:03:40;;;;;;;5.82;2.40;;;;;;;;;;5013666;28;20111;-40
2022/07/01 01:06:05;;;;;;;3.85;2.17;;;;;;;;;;5013767;28;20033;-41
2022/07/01 01:08:31;;;;;;;5.05;2.42;;;;;;;;;;5013801;28;20037;-40
2022/07/01 01:10:56;;;;;;;9.23;2.17;;;;;;;;;;5013653;28;20480;-41
2022/07/01 01:13:22;;;;;;;4.18;2.42;;;;;;;;;;5012321;28;20057;-40
2022/07/01 01:15:47;;;;;;;7.22;2.80;;;;;;;;;;5013554;28;20080;-40
2022/07/01 01:18:12;;;;;;;10.90;2.20;;;;;;;;;;5013646;28;20049;-40
2022/07/01 01:20:38;;;;;;;3.45;1.92;;;;;;;;;;5013631;28;20065;-40
2022/07/01 01:23:06;;;;;;;5.47;2.53;;;;;;;;;;5013606;28;20101;-40
2022/07/01 01:25:32;;;;;;;7.82;3.05;;;;;;;;;;5013559;28;20430;-40
2022/07/01 01:27:58;;;;;;;3.85;2.63;;;;;;;;;;5013279;28;20018;-40
2022/07/01 01:30:23;;;;;;;5.13;2.50;;;;;;;;;;5013022;28;20049;-40
2022/07/01 01:32:49;;;;;;;3.60;1.85;;;;;;;;;;5012488;28;20022;-40
2022/07/01 01:35:15;;;;;;;5.50;2.10;;;;;;;;;;5013108;28;20506;-41
2022/07/01 01:37:40;;;;;;;5.40;2.45;;;;;;;;;;5013130;28;20018;-40
2022/07/01 01:40:06;;;;;;;3.75;2.60;;;;;;;;;;5013160;28;20038;-40
2022/07/01 01:42:32;;;;;;;8.95;2.63;;;;;;;;;;5012928;28;20022;-40
2022/07/01 01:44:57;;;;;;;4.93;1.98;;;;;;;;;;5013078;28;20049;-40
2022/07/01 01:47:23;;;;;;;4.13;1.95;;;;;;;;;;5012937;28;20029;-40
2022/07/01 01:49:48;;;;;;;7.95;2.10;;;;;;;;;;5013154;28;20046;-40
2022/07/01 01:52:13;;;;;;;5.78;2.33;;;;;;;;;;5013067;28;20356;-40
2022/07/01 01:54:39;;;;;;;6.43;2.42;;;;;;;;;;5012964;28;20029;-40
2022/07/01 01:57:04;;;;;;;6.15;2.63;;;;;;;;;;5012739;28;20029;-40
2022/07/01 01:59:30;;;;;;;10.95;2.97;;;;;;;;;;5013037;28;20032;-41
2022/07/01 02:01:55;;;;;;;6.05;2.17;;;;;;;;;;5013031;28;20108;-41
2022/07/01 02:04:23;;;;;;;3.72;2.25;;;;;;;;;;5012373;28;20050;-40
2022/07/01 02:06:49;;;;;;;10.15;2.78;;;;;;;;;;5012943;28;20042;-40
2022/07/01 02:09:14;;;;;;;7.25;2.20;;;;;;;;;;5012441;28;20034;-40
2022/07/01 02:11:40;;;;;;;5.63;2.80;;;;;;;;;;5013107;28;20029;-40
2022/07/01 02:14:05;;;;;;;3.42;2.45;;;;;;;;;;5013069;28;20472;-40
2022/07/01 02:16:31;;;;;;;6.20;2.33;;;;;;;;;;5013111;28;20057;-40
2022/07/01 02:18:57;;;;;;;6.55;2.85;;;;;;;;;;5013157;28;20065;-41
2022/07/01 02:21:22;;;;;;;11.38;2.72;;;;;;;;;;5013137;28;20028;-40
2022/07/01 02:23:47;;;;;;;9.35;3.25;;;;;;;;;;5013147;28;20041;-40
2022/07/01 02:26:13;;;;;;;8.80;2.95;;;;;;;;;;5012663;28;20264;-40
2022/07/01 02:28:38;;;;;;;9.00;3.35;;;;;;;;;;5012790;28;20038;-40
2022/07/01 02:31:03;;;;;;;4.85;2.42;;;;;;;;;;5012739;28;20037;-41
2022/07/01 02:33:29;;;;;;;3.58;2.30;;;;;;;;;;5012555;28;20032;-40
2022/07/01 02:35:55;;;;;;;4.80;2.38;;;;;;;;;;5012586;28;20033;-40
2022/07/01 02:38:20;;;;;;;10.98;3.03;;;;;;;;;;5012618;28;20068;-40
2022/07/01 02:40:46;;;;;;;7.63;2.50;;;;;;;;;;5012811;28;20017;-40
2022/07/01 02:43:11;;;;;;;4.78;3.28;;;;;;;;;;5012466;28;20356;-40
2022/07/01 02:45:37;;;;;;;6.38;2.75;;;;;;;;;;5012324;28;20022;-40
2022/07/01 02:48:02;;;;;;;3.03;2.20;;;;;;;;;;5012299;28;20084;-40
2022/07/01 02:50:28;;;;;;;6.47;2.00;;;;;;;;;;5012586;28;20030;-41
2022/07/01 02:52:54;;;;;;;4.40;2.00;;;;;;;;;;5012414;28;20432;-41
2022/07/01 02:55:19;;;;;;;8.55;2.95;;;;;;;;;;5012483;28;20124;-40
2022/07/01 02:57:45;;;;;;;9.23;2.85;;;;;;;;;;5012562;28;20518;-40
2022/07/01 03:00:12;;;;;;;3.63;2.20;;;;;;;;;;5012349;28;20395;-39
2022/07/01 03:02:38;;;;;;;6.78;2.78;;;;;;;;;;5012013;28;20126;-40
2022/07/01 03:05:05;;;;;;;3.55;2.47;;;;;;;;;;5012352;28;20042;-40
2022/07/01 03:07:30;;;;;;;7.57;2.22;;;;;;;;;;5010955;28;20516;-40
2022/07/01 03:09:56;;;;;;;4.05;1.83;;;;;;;;;;5012369;28;20113;-40
2022/07/01 03:12:28;;;;;;;9.27;2.15;;;;;;;;;;5012362;28;20113;-40
2022/07/01 03:15:00;;;;;;;3.33;1.77;;;;;;;;;;5012267;28;20076;-41
2022/07/01 03:17:27;;;;;;;7.00;3.08;;;;;;;;;;5012010;28;20037;-40
2022/07/01 03:19:53;;;;;;;8.48;2.80;;;;;;;;;;5012122;28;20026;-40
2022/07/01 03:22:20;;;;;;;4.18;2.67;;;;;;;;;;5011829;28;20050;-40
2022/07/01 03:24:46;;;;;;;3.88;2.17;;;;;;;;;;5012032;28;20026;-40
2022/07/01 03:27:12;;;;;;;10.35;3.28;;;;;;;;;;5012358;28;20056;-40
2022/07/01 03:29:37;;;;;;;4.47;1.95;;;;;;;;;;5012174;28;20375;-40
2022/07/01 03:32:03;;;;;;;6.75;2.40;;;;;;;;;;5012335;28;20022;-40
2022/07/01 03:34:28;;;;;;;11.98;2.25;;;;;;;;;;5011917;28;20033;-40
2022/07/01 03:36:53;;;;;;;4.32;2.30;;;;;;;;;;5012140;28;20034;-40
2022/07/01 03:39:19;;;;;;;7.47;2.53;;;;;;;;;;5011900;28;20030;-40
2022/07/01 03:41:44;;;;;;;9.90;3.03;;;;;;;;;;5012217;28;20117;-39
2022/07/01 03:44:10;;;;;;;9.80;2.80;;;;;;;;;;5012071;28;20114;-40
2022/07/01 03:46:35;;;;;;;4.53;2.33;;;;;;;;;;5011759;28;20491;-40
2022/07/01 03:49:01;;;;;;;10.30;3.42;;;;;;;;;;5011902;28;20021;-39
2022/07/01 03:51:26;;;;;;;4.03;2.35;;;;;;;;;;5011951;28;20065;-40
2022/07/01 03:56:36;;;;;;;8.63;2.45;;;;;;;;;;5015782;28;20048;-40
2022/07/01 03:59:01;;;;;;;7.60;2.30;;;;;;;;;;5015517;28;20463;-40
2022/07/01 04:01:26;;;;;;;6.18;2.58;;;;;;;;;;5015644;28;20495;-40
2022/07/01 04:03:52;;;;;;;4.68;2.40;;;;;;;;;;5015291;28;20570;-40
2022/07/01 04:06:18;;;;;;;7.85;3.15;;;;;;;;;;5015490;28;20030;-40
2022/07/01 04:08:43;;;;;;;8.23;2.53;;;;;;;;;;5015452;28;20033;-40
2022/07/01 04:11:09;;;;;;;3.47;1.77;;;;;;;;;;5015232;28;20123;-41
2022/07/01 04:13:36;;;;;;;6.35;2.15;;;;;;;;;;5015349;28;20104;-40
2022/07/01 04:16:02;;;;;;;5.43;3.13;;;;;;;;;;5015454;28;20033;-39
2022/07/01 04:18:28;;;;;;;6.65;2.13;;;;;;;;;;5015143;28;20022;-40
2022/07/01 04:23:37;;;;;;;8.00;3.05;;;;;;;;;;5015339;28;20022;-40
2022/07/01 04:26:03;;;;;;;3.13;2.40;;;;;;;;;;5015255;28;20028;-39
2022/07/01 04:28:28;;;;;;;10.07;2.33;;;;;;;;;;5014881;28;20030;-40
2022/07/01 04:30:54;;;;;;;5.25;2.17;;;;;;;;;;5014844;28;20030;-40
2022/07/01 04:33:19;;;;;;;2.25;1.95;;;;;;;;;;5014719;28;20034;-40
2022/07/01 04:35:44;;;;;;;5.88;2.15;;;;;;;;;;5015039;28;20068;-40
2022/07/01 04:38:10;;;;;;;12.05;2.63;;;;;;;;;;5015120;28;20085;-40
2022/07/01 04:40:35;;;;;;;8.30;2.28;;;;;;;;;;5014646;28;20539;-40
2022/07/01 04:43:00;;;;;;;8.90;2.88;;;;;;;;;;5014977;28;20034;-42
2022/07/01 04:45:26;;;;;;;3.13;1.67;;;;;;;;;;5014913;28;20076;-40
2022/07/01 04:47:51;;;;;;;6.35;1.95;;;;;;;;;;5013278;28;20049;-40
2022/07/01 04:50:17;;;;;;;13.35;2.55;;;;;;;;;;5013119;28;20034;-40
2022/07/01 04:52:42;;;;;;;4.97;2.30;;;;;;;;;;5014587;28;20022;-40
2022/07/01 04:55:08;;;;;;;7.35;3.13;;;;;;;;;;5014457;28;20025;-40
2022/07/01 04:57:34;;;;;;;3.65;2.08;;;;;;;;;;5014656;28;20022;-40
2022/07/01 04:59:59;;;;;;;5.78;2.30;;;;;;;;;;5014455;28;20022;-40
2022/07/01 05:02:25;;;;;;;9.32;2.75;;;;;;;;;;5012863;28;20384;-40
2022/07/01 05:04:50;;;;;;;4.15;2.28;;;;;;;;;;5014294;28;20042;-40
2022/07/01 05:07:28;;;;;;;9.77;2.85;;;;;;;;;;5013897;28;20030;-40
2022/07/01 05:09:58;;;;;;;4.07;2.50;;;;;;;;;;5014398;28;20046;-40
2022/07/01 05:12:24;;;;;;;5.25;2.67;;;;;;;;;;5014075;28;20026;-40
2022/07/01 05:14:49;;;;;;;4.47;2.58;;;;;;;;;;5014207;28;20022;-40
2022/07/01 05:17:15;;;;;;;6.97;2.70;;;;;;;;;;5014059;28;20069;-40
2022/07/01 05:22:24;;;;;;;5.90;2.53;;;;;;;;;;5013951;28;20038;-40
2022/07/01 05:24:49;;;;;;;2.78;2.00;;;;;;;;;;5013866;28;20033;-40
2022/07/01 05:27:15;;;;;;;9.32;2.83;;;;;;;;;;5014109;28;20033;-40
2022/07/01 05:29:40;;;;;;;4.22;2.38;;;;;;;;;;5013955;28;20037;-40
2022/07/01 05:32:06;;;;;;;9.43;2.28;;;;;;;;;;5014043;28;20101;-40
2022/07/01 05:34:31;;;;;;;5.60;1.77;;;;;;;;;;5013725;28;20045;-40
2022/07/01 05:36:57;;;;;;;5.30;2.08;;;;;;;;;;5012438;28;20486;-40
2022/07/01 05:39:22;;;;;;;7.07;2.72;;;;;;;;;;5013633;28;20022;-40
2022/07/01 05:41:48;;;;;;;4.82;2.60;;;;;;;;;;5013648;28;20048;-40
2022/07/01 05:44:14;;;;;;;6.53;2.42;;;;;;;;;;5013765;28;20018;-40
2022/07/01 05:46:39;;;;;;;8.00;2.33;;;;;;;;;;5013373;28;20041;-40
2022/07/01 05:49:05;;;;;;;5.10;2.03;;;;;;;;;;5013765;28;20025;-40
2022/07/01 05:51:31;;;;;;;5.90;2.10;;;;;;;;;;5013310;28;20045;-40
2022/07/01 05:53:56;;;;;;;4.28;2.45;;;;;;;;;;5013639;28;20029;-40
2022/07/01 05:56:22;;;;;;;8.00;4.10;;;;;;;;;;5013261;28;20034;-40
2022/07/01 05:58:47;;;;;;;3.20;1.83;;;;;;;;;;5028550;28;20068;-40
2022/07/01 06:01:13;;;;;;;5.68;2.95;;;;;;;;;;5013217;28;20053;-40
2022/07/01 06:03:39;;;;;;;13.02;2.75;;;;;;;;;;5013026;28;20053;-40
2022/07/01 06:06:04;;;;;;;14.55;2.45;;;;;;;;;;5013111;28;20045;-40
2022/07/01 06:08:30;;;;;;;5.57;1.65;;;;;;;;;;5013071;28;20021;-40
2022/07/01 06:10:55;;;;;;;3.40;2.25;;;;;;;;;;5013078;28;20044;-41
2022/07/01 06:13:21;;;;;;;4.25;1.70;;;;;;;;;;5011646;28;20113;-40
2022/07/01 06:15:46;;;;;;;4.30;1.98;;;;;;;;;;5012922;28;20141;-40
2022/07/01 06:18:12;;;;;;;5.05;2.10;;;;;;;;;;5012620;28;20068;-40
2022/07/01 06:20:37;;;;;;;4.53;2.08;;;;;;;;;;5012845;28;20312;-40
2022/07/01 06:23:02;;;;;;;6.78;2.42;;;;;;;;;;5012898;28;20072;-39
2022/07/01 06:25:28;;;;;;;8.23;2.05;;;;;;;;;;5012692;28;20030;-40
2022/07/01 06:27:53;;;;;;;7.30;3.65;;;;;;;;;;5012669;28;20024;-41
2022/07/01 06:30:19;;;;;;;4.43;2.45;;;;;;;;;;5012863;28;20095;-40
2022/07/01 06:32:44;;;;;;;2.63;2.08;;;;;;;;;;5012719;28;20431;-41
2022/07/01 06:35:10;;;;;;;2.95;2.13;;;;;;;;;;5012718;28;20548;-40
2022/07/01 06:37:35;;;;;;;5.18;2.25;;;;;;;;;;5012533;28;20057;-40
2022/07/01 06:40:05;;;;;;;5.00;2.47;;;;;;;;;;5012927;28;20026;-41
2022/07/01 06:42:30;;;;;;;3.40;1.85;;;;;;;;;;5012233;28;20017;-41
2022/07/01 06:44:56;;;;;;;4.15;1.88;;;;;;;;;;5012525;28;20100;-40
2022/07/01 06:47:21;;;;;;;4.80;2.20;;;;;;;;;;5012682;28;20020;-40
2022/07/01 06:49:48;;;;;;;5.70;1.92;;;;;;;;;;5012444;28;20117;-40
2022/07/01 06:52:13;;;;;;;7.20;1.92;;;;;;;;;;5011173;28;20026;-41
2022/07/01 06:54:39;;;;;;;11.85;2.13;;;;;;;;;;5012655;28;20037;-40
2022/07/01 06:57:05;;;;;;;3.33;1.80;;;;;;;;;;5012590;28;20426;-40
2022/07/01 06:59:30;;;;;;;4.32;2.08;;;;;;;;;;5012313;28;20034;-39
2022/07/01 07:01:56;;;;;;;4.78;2.35;;;;;;;;;;5012640;28;20033;-40
2022/07/01 07:04:21;;;;;;;7.40;2.10;;;;;;;;;;5027202;28;20046;-41
2022/07/01 07:06:47;;;;;;;4.88;2.38;;;;;;;;;;5012274;28;20034;-40
2022/07/01 07:09:12;;;;;;;4.07;2.15;;;;;;;;;;5012462;28;20042;-40
2022/07/01 07:11:38;;;;;;;6.75;2.10;;;;;;;;;;5012091;28;20026;-41
2022/07/01 07:14:03;;;;;;;5.63;2.80;;;;;;;;;;5012198;28;20062;-41
2022/07/01 07:16:29;;;;;;;10.43;2.30;;;;;;;;;;5012052;28;20022;-41
2022/07/01 07:18:54;;;;;;;7.78;2.15;;;;;;;;;;5012129;28;20049;-41
2022/07/01 07:21:19;;;;;;;7.20;2.17;;;;;;;;;;5012357;28;20065;-41
2022/07/01 07:23:45;;;;;;;3.00;2.15;;;;;;;;;;5012362;28;20034;-40
2022/07/01 07:26:11;;;;;;;5.00;2.28;;;;;;;;;;5011969;28;20028;-41
2022/07/01 07:28:36;;;;;;;8.05;2.10;;;;;;;;;;5012987;28;20044;-40
2022/07/01 07:31:02;;;;;;;3.53;1.83;;;;;;;;;;5016062;28;20037;-40
2022/07/01 07:33:28;;;;;;;3.50;1.95;;;;;;;;;;5015925;28;20026;-40
2022/07/01 07:35:53;;;;;;;5.40;2.25;;;;;;;;;;5016148;28;20033;-40
2022/07/01 07:38:19;;;;;;;8.77;2.50;;;;;;;;;;5015942;28;20030;-40
2022/07/01 07:40:44;;;;;;;3.80;2.47;;;;;;;;;;5016034;28;20022;-40
2022/07/01 07:43:10;;;;;;;6.18;1.85;;;;;;;;;;5015850;28;20149;-40
2022/07/01 07:45:35;;;;;;;2.90;1.63;;;;;;;;;;5015701;28;20130;-41
2022/07/01 07:48:02;;;;;;;4.97;2.20;;;;;;;;;;5015791;28;20034;-40
2022/07/01 07:50:27;;;;;;;4.40;2.00;;;;;;;;;;5015558;28;20139;-43
2022/07/01 07:52:52;;;;;;;6.63;2.20;;;;;;;;;;5015672;28;20467;-40
2022/07/01 07:55:18;;;;;;;7.00;2.80;;;;;;;;;;5015914;28;20678;-40
2022/07/01 07:57:44;;;;;;;4.05;2.58;;;;;;;;;;5015581;28;20033;-40
2022/07/01 08:00:10;;;;;;;2.10;1.80;;;;;;;;;;5015524;28;20026;-40
2022/07/01 08:02:39;;;;;;;7.35;2.08;;;;;;;;;;5015289;28;20489;-41
2022/07/01 08:05:05;;;;;;;5.20;1.85;;;;;;;;;;5015595;28;20084;-41
2022/07/01 08:07:34;;;;;;;4.07;2.63;;;;;;;;;;5015187;28;20033;-40
2022/07/01 08:09:59;;;;;;;3.67;1.98;;;;;;;;;;5015276;28;20036;-40
2022/07/01 08:12:26;;;;;;;4.65;2.22;;;;;;;;;;5015557;28;20108;-40
2022/07/01 08:14:51;;;;;;;5.18;1.77;;;;;;;;;;5015242;28;20463;-40
2022/07/01 08:17:16;;;;;;;4.85;2.00;;;;;;;;;;5015464;28;20084;-41
2022/07/01 08:19:42;;;;;;;4.38;2.17;;;;;;;;;;5015137;28;20014;-41
2022/07/01 08:22:07;;;;;;;4.28;2.33;;;;;;;;;;5015102;28;20087;-40
2022/07/01 08:24:33;;;;;;;8.02;2.17;;;;;;;;;;5015289;28;20018;-40
2022/07/01 08:27:00;;;;;;;4.00;2.35;;;;;;;;;;5030203;28;20483;-40
2022/07/01 08:29:26;;;;;;;9.00;2.17;;;;;;;;;;5014856;28;20732;-41
2022/07/01 08:31:51;;;;;;;5.43;2.42;;;;;;;;;;5015204;28;20117;-40
2022/07/01 08:34:17;;;;;;;4.57;2.35;;;;;;;;;;5015252;28;20060;-40
2022/07/01 08:36:43;;;;;;;9.85;2.45;;;;;;;;;;5029932;28;20033;-40
2022/07/01 08:39:09;;;;;;;3.60;2.00;;;;;;;;;;5014810;28;20456;-40
2022/07/01 08:41:34;;;;;;;3.85;1.95;;;;;;;;;;5014415;28;20038;-40
2022/07/01 08:44:00;;;;;;;4.05;2.30;;;;;;;;;;5015016;28;20032;-41
2022/07/01 08:46:28;;;;;;;6.90;2.10;;;;;;;;;;5014605;28;20022;-40
2022/07/01 08:48:53;;;;;;;3.20;2.00;;;;;;;;;;5013399;28;20026;-41
2022/07/01 08:51:19;;;;;;;8.88;2.13;;;;;;;;;;5014520;28;20048;-41
2022/07/01 08:53:44;;;;;;;6.55;1.65;;;;;;;;;;5014451;28;20014;-41
2022/07/01 08:58:55;;;;;;;3.67;2.25;;;;;;;;;;5014745;28;20092;-41
2022/07/01 09:01:22;;;;;;;8.52;2.35;;;;;;;;;;5014333;28;20022;-41
2022/07/01 09:03:49;;;;;;;5.70;2.60;;;;;;;;;;5014220;28;20104;-40
2022/07/01 09:06:16;;;;;;;10.90;2.75;;;;;;;;;;5014521;28;20423;-42
2022/07/01 09:08:42;;;;;;;5.20;1.98;;;;;;;;;;5014315;28;20041;-41
2022/07/01 09:11:14;;;;;;;5.60;2.67;;;;;;;;;;5014172;28;20030;-41
2022/07/01 09:13:40;;;;;;;11.15;2.03;;;;;;;;;;5014402;28;20034;-41
2022/07/01 09:16:12;;;;;;;9.15;1.98;;;;;;;;;;5029297;28;20037;-41
2022/07/01 09:18:37;;;;;;;7.80;1.92;;;;;;;;;;5014302;28;20029;-41
2022/07/01 09:21:07;;;;;;;7.28;2.00;;;;;;;;;;5014099;28;20471;-40
2022/07/01 09:23:33;;;;;;;15.75;2.25;;;;;;;;;;5013885;28;20471;-41
2022/07/01 09:25:58;;;;;;;5.13;2.35;;;;;;;;;;5014205;28;20108;-41
2022/07/01 09:28:28;;;;;;;5.72;2.42;;;;;;;;;;5013788;28;20396;-41
2022/07/01 09:30:54;;;;;;;3.80;2.30;;;;;;;;;;5013789;28;20036;-41
2022/07/01 09:33:27;;;;;;;9.30;1.95;;;;;;;;;;5013712;28;20498;-41
2022/07/01 09:35:53;;;;;;;;;;;;;;;;;;5014200;28;20543;-41
2022/07/01 09:38:19;;;;;;;9.15;2.75;;;;;;;;;;5014051;28;19916;-41
2022/07/01 09:40:46;;;;;;;7.28;2.00;;;;;;;;;;5013788;28;20033;-40
2022/07/01 09:43:15;;;;;;;5.68;2.05;;;;;;;;;;5013916;28;20109;-40
2022/07/01 09:45:50;;;;;;;6.38;2.17;;;;;;;;;;5028687;28;20030;-40
2022/07/01 09:48:16;;;;;;;5.38;2.78;;;;;;;;;;5013508;28;20060;-40
2022/07/01 09:50:41;;;;;;;4.68;2.03;;;;;;;;;;5013649;28;20091;-41
2022/07/01 09:53:06;;;;;;;4.78;2.70;;;;;;;;;;5012578;28;20105;-41
2022/07/01 09:55:33;;;;;;;4.85;1.95;;;;;;;;;;5013241;28;20021;-40
2022/07/01 09:57:59;;;;;;;7.97;2.80;;;;;;;;;;5013384;28;20503;-40
2022/07/01 10:00:25;;;;;;;6.30;2.53;;;;;;;;;;5013209;28;20026;-40
2022/07/01 10:02:51;;;;;;;5.95;2.28;;;;;;;;;;5013060;28;20044;-40
2022/07/01 10:05:19;;;;;;;5.72;1.63;;;;;;;;;;5013429;28;20034;-40
2022/07/01 10:07:58;;;;;;;7.43;1.83;;;;;;;;;;5013177;28;20034;-40
2022/07/01 10:10:33;;;;;;;7.18;2.25;;;;;;;;;;5013248;28;20061;-40
2022/07/01 10:13:00;;;;;;;4.07;1.55;;;;;;;;;;5013182;28;20472;-41
2022/07/01 10:15:26;;;;;;;10.23;2.70;;;;;;;;;;5012880;28;20020;-40
2022/07/01 10:17:54;;;;;;;3.67;1.80;;;;;;;;;;5013028;28;20026;-40
2022/07/01 10:20:23;;;;;;;12.18;2.17;;;;;;;;;;5012951;28;20491;-40
2022/07/01 10:22:49;;;;;;;3.85;2.00;;;;;;;;;;5028057;28;20046;-40
2022/07/01 10:25:33;;;;;;;11.98;2.15;;;;;;;;;;5013082;28;20028;-41
2022/07/01 10:28:19;;;;;;;3.13;1.63;;;;;;;;;;5012882;28;20033;-40
2022/07/01 10:30:55;;;;;;;6.00;1.90;;;;;;;;;;5012591;28;20041;-41
2022/07/01 10:33:31;;;;;;;5.95;1.88;;;;;;;;;;5012764;28;20057;-41
2022/07/01 10:36:03;;;;;;;3.30;1.60;;;;;;;;;;5012946;28;20049;-40
2022/07/01 10:38:29;;;;;;;;;;;;;;;;;;5012914;28;20076;-40
2022/07/01 10:40:54;;;;;;;7.80;1.73;;;;;;;;;;5012664;28;19905;-40
2022/07/01 10:43:31;;;;;;;3.45;2.13;;;;;;;;;;5012557;28;20088;-40
2022/07/01 10:45:57;;;;;;;4.22;1.85;;;;;;;;;;5012459;28;20480;-40
2022/07/01 10:48:24;;;;;;;3.25;1.88;;;;;;;;;;5012497;28;20033;-40
2022/07/01 10:50:50;;;;;;;7.97;1.90;;;;;;;;;;5012371;28;20503;-41
2022/07/01 10:53:16;;;;;;;3.47;2.45;;;;;;;;;;5012760;28;20024;-40
2022/07/01 10:55:45;;;;;;;4.68;2.30;;;;;;;;;;5012319;28;20108;-40
2022/07/01 10:58:11;;;;;;;6.13;2.10;;;;;;;;;;5012317;28;20431;-40
2022/07/01 11:00:40;;;;;;;8.55;2.42;;;;;;;;;;5012621;28;20117;-41
2022/07/01 11:03:10;;;;;;;5.97;2.22;;;;;;;;;;5011944;28;20091;-41
2022/07/01 11:05:38;;;;;;;3.22;1.40;;;;;;;;;;5012122;28;20379;-41
2022/07/01 11:08:05;;;;;;;7.28;1.83;;;;;;;;;;5012532;28;20034;-40
2022/07/01 11:10:31;;;;;;;4.93;1.63;;;;;;;;;;5012400;28;20199;-40
2022/07/01 11:12:56;;;;;;;8.05;1.73;;;;;;;;;;5012224;28;20447;-41
2022/07/01 11:15:22;;;;;;;5.68;2.08;;;;;;;;;;5012424;28;20041;-40
2022/07/01 11:17:48;;;;;;;5.70;1.80;;;;;;;;;;5012172;28;20419;-41
2022/07/01 11:20:14;;;;;;;7.68;1.90;;;;;;;;;;5012349;28;20030;-40
2022/07/01 11:22:40;;;;;;;7.43;2.13;;;;;;;;;;5012078;28;20451;-41
2022/07/01 11:25:07;;;;;;;5.65;1.70;;;;;;;;;;5012427;28;20038;-40
2022/07/01 11:27:33;;;;;;;14.57;2.22;;;;;;;;;;5011941;28;20471;-40
2022/07/01 11:30:00;;;;;;;7.18;2.15;;;;;;;;;;5012308;28;20144;-40
2022/07/01 11:32:36;;;;;;;6.47;2.08;;;;;;;;;;5011919;28;20022;-40
2022/07/01 11:35:03;;;;;;;3.47;1.73;;;;;;;;;;5011866;28;20041;-41
2022/07/01 11:40:13;;;;;;;7.10;3.17;;;;;;;;;;5012012;28;20038;-41
2022/07/01 11:42:39;;;;;;;7.50;1.77;;;;;;;;;;5011842;28;20018;-40
2022/07/01 11:45:05;;;;;;;8.77;2.15;;;;;;;;;;5011948;28;20113;-41
2022/07/01 11:47:30;;;;;;;4.70;2.10;;;;;;;;;;5011775;28;20053;-41
2022/07/01 11:49:57;;;;;;;6.97;2.17;;;;;;;;;;5011783;28;20074;-41
2022/07/01 11:52:23;;;;;;;13.73;1.95;;;;;;;;;;5011838;28;20018;-41
2022/07/01 11:54:49;;;;;;;11.52;2.28;;;;;;;;;;5011837;28;20380;-40
2022/07/01 11:57:17;;;;;;;9.23;2.42;;;;;;;;;;5011784;28;20021;-41
2022/07/01 11:59:43;;;;;;;4.20;1.77;;;;;;;;;;5011762;28;20480;-40
2022/07/01 12:02:10;;;;;;;11.38;1.98;;;;;;;;;;5012025;28;20029;-40
2022/07/01 12:04:36;;;;;;;11.50;1.83;;;;;;;;;;5011571;28;20492;-40
2022/07/01 12:07:02;;;;;;;11.13;2.85;;;;;;;;;;5011978;28;20021;-40
2022/07/01 12:09:28;;;;;;;6.45;2.00;;;;;;;;;;5011566;28;20494;-40
2022/07/01 12:11:53;;;;;;;9.98;2.78;;;;;;;;;;5011746;28;20590;-41
2022/07/01 12:14:19;;;;;;;5.65;2.13;;;;;;;;;;5011700;28;20069;-41
2022/07/01 12:16:45;;;;;;;7.63;2.25;;;;;;;;;;5029183;28;20108;-41
2022/07/01 12:19:12;;;;;;;9.93;2.80;;;;;;;;;;5015235;28;20160;-40
2022/07/01 12:21:48;;;;;;;2.72;2.00;;;;;;;;;;5015107;28;20029;-40
2022/07/01 12:24:14;;;;;;;12.07;2.78;;;;;;;;;;5015023;28;20037;-40
2022/07/01 12:26:50;;;;;;;7.57;2.63;;;;;;;;;;5015252;28;20140;-41
2022/07/01 12:29:20;;;;;;;4.25;2.35;;;;;;;;;;5015094;28;20030;-40
2022/07/01 12:32:01;;;;;;;9.23;2.75;;;;;;;;;;5015052;28;20045;-40
2022/07/01 12:34:39;;;;;;;7.78;3.40;;;;;;;;;;5014866;28;20041;-40
2022/07/01 12:37:09;;;;;;;4.72;2.45;;;;;;;;;;5014840;28;20133;-40
2022/07/01 12:39:46;;;;;;;12.07;2.72;;;;;;;;;;5014684;28;20113;-41
2022/07/01 12:42:25;;;;;;;9.18;3.47;;;;;;;;;;5014788;28;20034;-40
2022/07/01 12:44:52;;;;;;;13.65;3.35;;;;;;;;;;5014709;28;20034;-40
2022/07/01 12:47:24;;;;;;;8.43;3.45;;;;;;;;;;5013432;28;20099;-41
2022/07/01 12:49:49;;;;;;;8.50;3.53;;;;;;;;;;5014600;28;20117;-40
2022/07/01 12:52:27;;;;;;;9.00;3.65;;;;;;;;;;5014555;28;20105;-41
2022/07/01 12:54:55;;;;;;;11.10;3.63;;;;;;;;;;5014852;28;20403;-41
2022/07/01 12:57:30;;;;;;;9.48;3.47;;;;;;;;;;5014521;28;20079;-43
2022/07/01 12:59:57;;;;;;;15.25;4.22;;;;;;;;;;5014483;28;20030;-40
2022/07/01 13:02:22;;;;;;;9.98;3.13;;;;;;;;;;5014263;28;20022;-40
2022/07/01 13:04:48;;;;;;;12.05;3.95;;;;;;;;;;5014405;28;20049;-40
2022/07/01 13:07:13;;;;;;;7.68;3.50;;;;;;;;;;5014316;28;20096;-40
2022/07/01 13:09:39;;;;;;;14.77;4.55;;;;;;;;;;5014137;28;20030;-40
2022/07/01 13:12:05;;;;;;;7.47;3.63;;;;;;;;;;5014216;28;20033;-40
2022/07/01 13:14:30;;;;;;;8.50;3.38;;;;;;;;;;5012864;28;20041;-42
2022/07/01 13:16:56;;;;;;;17.58;5.78;;;;;;;;;;5014434;28;20018;-40
2022/07/01 13:19:22;;;;;;;13.15;4.00;;;;;;;;;;5014391;28;20037;-40
2022/07/01 13:21:47;;;;;;;14.25;4.35;;;;;;;;;;5013863;28;20010;-41
2022/07/01 13:24:13;;;;;;;19.95;4.30;;;;;;;;;;5014322;28;20076;-41
2022/07/01 13:26:39;;;;;;;9.77;3.65;;;;;;;;;;5013653;28;20046;-41
2022/07/01 13:29:04;;;;;;;13.88;4.88;;;;;;;;;;5013898;28;20028;-41
2022/07/01 13:31:30;;;;;;;10.75;3.60;;;;;;;;;;5013756;28;20479;-41
2022/07/01 13:33:55;;;;;;;8.75;3.80;;;;;;;;;;5013859;28;20038;-40
2022/07/01 13:36:21;;;;;;;13.57;3.90;;;;;;;;;;5013791;28;20030;-41
2022/07/01 13:38:48;;;;;;;16.63;4.45;;;;;;;;;;5013971;28;20349;-40
2022/07/01 13:41:14;;;;;;;12.52;4.10;;;;;;;;;;5014033;28;20136;-40
2022/07/01 13:43:40;;;;;;;9.25;4.15;;;;;;;;;;5013494;28;20499;-40
2022/07/01 13:46:05;;;;;;;21.05;5.05;;;;;;;;;;5013573;28;20021;-41
2022/07/01 13:48:31;;;;;;;12.57;4.22;;;;;;;;;;5013523;28;20021;-41
2022/07/01 13:50:56;;;;;;;15.85;5.15;;;;;;;;;;5013501;28;20494;-40
2022/07/01 13:53:22;;;;;;;20.00;4.60;;;;;;;;;;5013556;28;20075;-41
2022/07/01 13:55:47;;;;;;;24.48;5.32;;;;;;;;;;5013327;28;20368;-40
2022/07/01 13:58:13;;;;;;;10.85;4.15;;;;;;;;;;5013307;28;20152;-41
2022/07/01 14:00:38;;;;;;;17.95;4.53;;;;;;;;;;5013562;28;20021;-42
2022/07/01 14:03:04;;;;;;;11.43;5.07;;;;;;;;;;5013068;28;20045;-40
2022/07/01 14:05:30;;;;;;;15.27;4.65;;;;;;;;;;5013101;28;20080;-40
2022/07/01 14:07:55;;;;;;;18.15;4.20;;;;;;;;;;5013241;28;20026;-41
2022/07/01 14:10:21;;;;;;;16.33;5.32;;;;;;;;;;5013302;28;20033;-40
2022/07/01 14:12:46;;;;;;;16.75;6.05;;;;;;;;;;5013092;28;20488;-40
2022/07/01 14:15:12;;;;;;;19.73;4.18;;;;;;;;;;5013298;28;20033;-41
2022/07/01 14:17:38;;;;;;;16.95;4.78;;;;;;;;;;5012895;28;20044;-41
2022/07/01 14:20:04;;;;;;;14.02;4.60;;;;;;;;;;5013316;28;20032;-41
2022/07/01 14:22:31;;;;;;;15.13;4.65;;;;;;;;;;5012930;28;20029;-41
2022/07/01 14:24:56;;;;;;;8.80;3.90;;;;;;;;;;5013166;28;20046;-41
2022/07/01 14:27:22;;;;;;;10.00;3.65;;;;;;;;;;5013176;28;20487;-40
2022/07/01 14:29:47;;;;;;;14.65;4.10;;;;;;;;;;5012662;28;20018;-41
2022/07/01 14:32:13;;;;;;;11.20;4.20;;;;;;;;;;5012983;28;20038;-41
2022/07/01 14:34:38;;;;;;;21.50;4.30;;;;;;;;;;5012926;28;20467;-40
2022/07/01 14:37:04;;;;;;;12.77;3.65;;;;;;;;;;5012933;28;20537;-41
2022/07/01 14:39:29;;;;;;;14.88;5.20;;;;;;;;;;5012131;28;20487;-41
2022/07/01 14:41:55;;;;;;;20.13;4.15;;;;;;;;;;5012630;28;20029;-40
2022/07/01 14:44:21;;;;;;;13.77;4.78;;;;;;;;;;5012634;28;20128;-42
2022/07/01 14:46:46;;;;;;;12.57;3.53;;;;;;;;;;5012613;28;20141;-41
2022/07/01 14:49:14;;;;;;;21.30;5.22;;;;;;;;;;5012833;28;20379;-40